Time;durP1;ratioP1;P1;durP2;ratioP2;P2;SDS_P1;SDS_P2;PMS_P1;PMS_P2;Temp;Humidity;BMP_temperature;BMP_pressure;BME280_temperature;BME280_humidity;BME280_pressure;Samples;Min_cycle;Max_cycle;Signal;HPM_P1;HPM_P2
2021/07/31 00:01:56;;;;;;;;;;;;;;;14.94;100.00;99799.16;5112352;28;19970;-67
2021/07/31 00:04:22;;;;;;;;;;;;;;;14.95;100.00;99792.66;5112548;28;19924;-70
2021/07/31 00:06:49;;;;;;;;;;;;;;;14.94;100.00;99789.09;5112007;28;20395;-70
2021/07/31 00:09:15;;;;;;;;;;;;;;;14.95;100.00;99781.75;5111578;28;20272;-69
2021/07/31 00:11:41;;;;;;;;;;;;;;;14.98;100.00;99782.25;5112308;28;19967;-69
2021/07/31 00:14:07;;;;;;;;;;;;;;;14.96;100.00;99775.25;5112095;28;19966;-66
2021/07/31 00:16:34;;;;;;;;;;;;;;;14.96;100.00;99772.53;5112083;27;20399;-66
2021/07/31 00:19:01;;;;;;;;;;;;;;;14.93;100.00;99772.88;5111814;28;19924;-66
2021/07/31 00:21:28;;;;;;;;;;;;;;;14.86;100.00;99778.19;5112041;28;20022;-66
2021/07/31 00:23:54;;;;;;;;;;;;;;;14.86;100.00;99779.03;5112198;28;19984;-65
2021/07/31 00:26:21;;;;;;;;;;;;;;;14.82;100.00;99774.13;5111913;28;20416;-66
2021/07/31 00:28:47;;;;;;;;;;;;;;;14.80;100.00;99776.16;5112030;28;19930;-66
2021/07/31 00:31:14;;;;;;;;;;;;;;;14.77;100.00;99769.16;5111829;28;19927;-66
2021/07/31 00:33:40;;;;;;;;;;;;;;;14.70;100.00;99770.91;5112216;28;19981;-66
2021/07/31 00:36:07;;;;;;;;;;;;;;;14.71;100.00;99772.59;5111886;28;19931;-65
2021/07/31 00:38:34;;;;;;;;;;;;;;;14.69;100.00;99761.00;5111783;28;19984;-66
2021/07/31 00:41:00;;;;;;;;;;;;;;;14.64;100.00;99764.25;5112030;28;19924;-66
2021/07/31 00:43:26;;;;;;;;;;;;;;;14.66;100.00;99764.09;5111738;28;19928;-67
2021/07/31 00:45:53;;;;;;;;;;;;;;;14.62;100.00;99755.34;5111440;28;19923;-66
2021/07/31 00:48:20;;;;;;;;;;;;;;;14.60;100.00;99748.34;5111370;28;20326;-66
2021/07/31 00:50:46;;;;;;;;;;;;;;;14.59;100.00;99752.97;5111952;28;20038;-66
2021/07/31 00:53:14;;;;;;;;;;;;;;;14.54;100.00;99749.91;5111728;28;19931;-66
2021/07/31 00:55:42;;;;;;;;;;;;;;;14.49;100.00;99746.84;5110591;28;19923;-66
2021/07/31 00:58:08;;;;;;;;;;;;;;;14.44;100.00;99747.34;5111903;28;19969;-66
2021/07/31 01:00:44;;;;;;;;;;;;;;;14.37;100.00;99743.63;5093576;28;19931;-66
2021/07/31 01:03:11;;;;;;;;;;;;;;;14.36;100.00;99744.66;5111520;28;20397;-67
2021/07/31 01:05:37;;;;;;;;;;;;;;;14.36;100.00;99752.84;5111458;28;19927;-68
2021/07/31 01:08:04;;;;;;;;;;;;;;;14.35;100.00;99756.59;5111737;28;19931;-70
2021/07/31 01:10:32;;;;;;;;;;;;;;;14.33;100.00;99753.19;5111888;28;19931;-70
2021/07/31 01:12:59;;;;;;;;;;;;;;;14.37;100.00;99760.84;5111836;28;19969;-69
2021/07/31 01:15:26;;;;;;;;;;;;;;;14.48;100.00;99758.78;5112025;28;19931;-69
2021/07/31 01:17:53;;;;;;;;;;;;;;;14.50;100.00;99752.13;5110369;28;19924;-67
2021/07/31 01:20:20;;;;;;;;;;;;;;;14.54;100.00;99747.19;5111656;28;19931;-70
2021/07/31 01:22:54;;;;;;;;;;;;;;;14.63;100.00;99750.72;5113882;28;19930;-69
2021/07/31 01:25:21;;;;;;;;;;;;;;;14.70;100.00;99754.50;5114640;28;19924;-69
2021/07/31 01:27:48;;;;;;;;;;;;;;;14.85;100.00;99754.63;5114038;28;19928;-69
2021/07/31 01:30:16;;;;;;;;;;;;;;;14.98;100.00;99746.72;5114654;28;19961;-69
2021/07/31 01:32:42;;;;;;;;;;;;;;;15.18;100.00;99747.16;5115310;28;19970;-70
2021/07/31 01:35:09;;;;;;;;;;;;;;;15.36;100.00;99741.38;5114011;28;20397;-67
2021/07/31 01:37:38;;;;;;;;;;;;;;;15.56;100.00;99739.03;5113219;28;19934;-66
2021/07/31 01:40:06;;;;;;;;;;;;;;;15.73;100.00;99742.53;5114807;28;19924;-67
2021/07/31 01:42:33;;;;;;;;;;;;;;;15.84;100.00;99735.81;5115142;28;19986;-69
2021/07/31 01:44:59;;;;;;;;;;;;;;;15.96;100.00;99735.38;5115003;28;19976;-66
2021/07/31 01:47:27;;;;;;;;;;;;;;;16.06;100.00;99727.75;5113525;28;20390;-69
2021/07/31 01:49:54;;;;;;;;;;;;;;;16.14;100.00;99730.44;5113984;28;19966;-67
2021/07/31 01:52:22;;;;;;;;;;;;;;;16.23;100.00;99729.31;5113530;28;20416;-69
2021/07/31 01:54:49;;;;;;;;;;;;;;;16.34;100.00;99724.41;5115766;28;19924;-66
2021/07/31 01:57:18;;;;;;;;;;;;;;;16.46;100.00;99722.06;5113438;28;19932;-67
2021/07/31 02:00:07;;;;;;;;;;;;;;;16.53;100.00;99718.41;5114533;28;19934;-67
2021/07/31 02:02:56;;;;;;;;;;;;;;;16.63;100.00;99718.09;5113470;28;19928;-69
2021/07/31 02:05:28;;;;;;;;;;;;;;;16.65;100.00;99713.31;5113455;28;19972;-67
2021/07/31 02:07:56;;;;;;;;;;;;;;;16.61;100.00;99714.72;5114243;28;19931;-68
2021/07/31 02:10:24;;;;;;;;;;;;;;;16.56;100.00;99708.94;5113336;28;19924;-69
2021/07/31 02:12:54;;;;;;;;;;;;;;;16.55;100.00;99716.34;5113372;28;20294;-70
2021/07/31 02:15:24;;;;;;;;;;;;;;;16.57;100.00;99719.72;5113360;28;19924;-70
2021/07/31 02:17:56;;;;;;;;;;;;;;;16.57;100.00;99719.72;5113187;28;19963;-69
2021/07/31 02:20:23;;;;;;;;;;;;;;;16.55;100.00;99712.72;5112630;28;19923;-66
2021/07/31 02:22:58;;;;;;;;;;;;;;;16.56;100.00;99717.16;5114344;28;19924;-69
2021/07/31 02:25:43;;;;;;;;;;;;;;;16.56;100.00;99720.75;5114131;28;20432;-66
2021/07/31 02:28:29;;;;;;;;;;;;;;;16.56;100.00;99717.16;5114120;28;20016;-69
2021/07/31 02:30:55;;;;;;;;;;;;;;;16.56;100.00;99723.50;5112986;28;19973;-66
2021/07/31 02:33:21;;;;;;;;;;;;;;;16.66;100.00;99741.53;5113387;28;20028;-66
2021/07/31 02:35:49;;;;;;;;;;;;;;;16.74;100.00;99741.44;5112900;28;19976;-67
2021/07/31 02:38:37;;;;;;;;;;;;;;;16.83;100.00;99748.53;5112516;28;19943;-69
2021/07/31 02:41:04;;;;;;;;;;;;;;;16.95;100.00;99748.09;5114174;28;19924;-66
2021/07/31 02:43:35;;;;;;;;;;;;;;;17.05;100.00;99754.97;5112629;28;20008;-66
2021/07/31 02:46:05;;;;;;;;;;;;;;;17.17;100.00;99740.78;5114079;27;19968;-66
2021/07/31 02:48:32;;;;;;;;;;;;;;;17.28;100.00;99747.69;5113611;28;19931;-69
2021/07/31 02:51:03;;;;;;;;;;;;;;;17.33;100.00;99756.16;5112528;28;19977;-70
2021/07/31 02:53:48;;;;;;;;;;;;;;;17.43;100.00;99747.63;5113468;28;20072;-70
2021/07/31 02:56:14;;;;;;;;;;;;;;;17.43;100.00;99756.72;5113397;28;19931;-69
2021/07/31 02:58:42;;;;;;;;;;;;;;;17.42;100.00;99755.00;5113577;28;19930;-65
2021/07/31 03:01:09;;;;;;;;;;;;;;;17.44;100.00;99757.53;5113620;28;20014;-67
2021/07/31 03:03:37;;;;;;;;;;;;;;;17.38;100.00;99759.19;5112267;28;19924;-66
2021/07/31 03:06:04;;;;;;;;;;;;;;;17.38;100.00;99767.41;5112194;28;20405;-67
2021/07/31 03:08:33;;;;;;;;;;;;;;;17.36;100.00;99764.84;5112051;28;19924;-69
2021/07/31 03:11:01;;;;;;;;;;;;;;;17.35;100.00;99762.31;5112301;28;19924;-67
2021/07/31 03:13:27;;;;;;;;;;;;;;;17.30;100.00;99759.28;5113301;28;19942;-69
2021/07/31 03:15:55;;;;;;;;;;;;;;;17.26;100.00;99753.34;5113282;28;20348;-70
2021/07/31 03:18:22;;;;;;;;;;;;;;;17.19;100.00;99756.00;5113338;28;19967;-71
2021/07/31 03:20:51;;;;;;;;;;;;;;;17.17;100.00;99760.84;5113495;28;19950;-70
2021/07/31 03:23:24;;;;;;;;;;;;;;;17.16;100.00;99769.25;5112072;28;19930;-70
2021/07/31 03:25:55;;;;;;;;;;;;;;;17.15;100.00;99782.09;5112018;28;19924;-68
2021/07/31 03:28:21;;;;;;;;;;;;;;;17.14;100.00;99772.16;5111657;28;19978;-69
2021/07/31 03:30:57;;;;;;;;;;;;;;;17.11;100.00;99775.28;5111855;28;19930;-66
2021/07/31 03:33:24;;;;;;;;;;;;;;;17.05;100.00;99774.19;5112993;28;19924;-70
2021/07/31 03:35:52;;;;;;;;;;;;;;;16.98;100.00;99780.59;5111924;28;19951;-66
2021/07/31 03:38:24;;;;;;;;;;;;;;;16.90;100.00;99779.66;5112342;28;19969;-66
2021/07/31 03:40:53;;;;;;;;;;;;;;;16.85;100.00;99783.97;5111635;28;20015;-70
2021/07/31 03:43:23;;;;;;;;;;;;;;;16.78;100.00;99788.50;5112170;28;19931;-70
2021/07/31 03:45:50;;;;;;;;;;;;;;;16.71;100.00;99780.19;5112375;28;19984;-70
2021/07/31 03:48:18;;;;;;;;;;;;;;;16.67;100.00;99787.09;5112203;28;19951;-70
2021/07/31 03:50:47;;;;;;;;;;;;;;;16.64;100.00;99790.22;5112591;28;20189;-69
2021/07/31 03:53:17;;;;;;;;;;;;;;;16.65;100.00;99780.94;5111269;28;19930;-70
2021/07/31 03:55:45;;;;;;;;;;;;;;;16.69;100.00;99795.97;5111028;28;19924;-70
2021/07/31 03:58:12;;;;;;;;;;;;;;;16.72;100.00;99801.06;5111063;28;19969;-69
2021/07/31 04:00:39;;;;;;;;;;;;;;;16.75;100.00;99803.44;5112570;28;19939;-70
2021/07/31 04:03:06;;;;;;;;;;;;;;;16.79;100.00;99803.91;5112260;28;19981;-70
2021/07/31 04:05:34;;;;;;;;;;;;;;;16.76;100.00;99810.63;5111963;28;19930;-70
2021/07/31 04:08:39;;;;;;;;;;;;;;;16.75;100.00;99806.16;5111936;28;20379;-70
2021/07/31 04:11:31;;;;;;;;;;;;;;;16.76;100.00;99810.63;5112377;28;19982;-66
2021/07/31 04:14:16;;;;;;;;;;;;;;;16.79;100.00;99821.19;5112145;28;19931;-68
2021/07/31 04:16:55;;;;;;;;;;;;;;;16.81;100.00;99818.25;5111002;28;19930;-66
2021/07/31 04:19:21;;;;;;;;;;;;;;;16.80;100.00;99822.06;5112300;28;20014;-67
2021/07/31 04:21:53;;;;;;;;;;;;;;;16.76;100.00;99824.31;5112235;28;19931;-67
2021/07/31 04:24:20;;;;;;;;;;;;;;;16.71;100.00;99830.34;5112065;28;19970;-69
2021/07/31 04:26:46;;;;;;;;;;;;;;;16.71;100.00;99829.50;5112240;28;19932;-67
2021/07/31 04:29:12;;;;;;;;;;;;;;;16.75;100.00;99833.56;5112181;28;20028;-67
2021/07/31 04:31:39;;;;;;;;;;;;;;;16.78;100.00;99837.84;5111854;28;19970;-67
2021/07/31 04:34:05;;;;;;;;;;;;;;;16.83;100.00;99843.59;5112302;28;20287;-67
2021/07/31 04:36:33;;;;;;;;;;;;;;;16.91;100.00;99840.81;5111556;28;19984;-66
2021/07/31 04:39:01;;;;;;;;;;;;;;;16.96;100.00;99843.00;5112053;28;19931;-66
2021/07/31 04:41:27;;;;;;;;;;;;;;;16.99;100.00;99824.25;5111523;28;19930;-66
2021/07/31 04:43:54;;;;;;;;;;;;;;;17.04;100.00;99829.19;5112176;28;19947;-66
2021/07/31 04:46:20;;;;;;;;;;;;;;;17.06;100.00;99832.59;5110761;28;20387;-66
2021/07/31 04:48:46;;;;;;;;;;;;;;;17.10;100.00;99828.41;5111527;28;19924;-66
2021/07/31 04:51:13;;;;;;;;;;;;;;;17.16;100.00;99832.31;5112046;28;19924;-66
2021/07/31 04:53:40;;;;;;;;;;;;;;;17.22;100.00;99837.91;5105359;28;20483;-70
2021/07/31 04:56:07;;;;;;;;;;;;;;;17.29;100.00;99840.72;5104869;28;20452;-70
2021/07/31 04:58:34;;;;;;;;;;;;;;;17.35;100.00;99848.19;5115651;28;20386;-70
2021/07/31 05:01:00;;;;;;;;;;;;;;;17.39;100.00;99844.00;5096141;28;19972;-70
2021/07/31 05:03:26;;;;;;;;;;;;;;;17.46;100.00;99838.59;5114254;28;19924;-70
2021/07/31 05:05:53;;;;;;;;;;;;;;;17.51;100.00;99833.41;5115629;28;20022;-70
2021/07/31 05:08:19;;;;;;;;;;;;;;;17.56;100.00;99841.06;5115701;28;19927;-70
2021/07/31 05:10:46;;;;;;;;;;;;;;;17.62;100.00;99843.03;5115557;28;19934;-66
2021/07/31 05:13:14;;;;;;;;;;;;;;;17.66;100.00;99846.25;5115475;28;19923;-66
2021/07/31 05:15:42;;;;;;;;;;;;;;;17.72;100.00;99845.50;5115613;28;19924;-66
2021/07/31 05:18:08;;;;;;;;;;;;;;;17.79;100.00;99845.56;5114949;28;19934;-66
2021/07/31 05:20:35;;;;;;;;;;;;;;;17.83;100.00;99842.22;5115572;28;19924;-66
2021/07/31 05:23:01;;;;;;;;;;;;;;;17.94;100.00;99856.53;5116807;28;19927;-71
2021/07/31 05:25:28;;;;;;;;;;;;;;;17.98;100.00;99860.59;5115371;28;20372;-71
2021/07/31 05:27:54;;;;;;;;;;;;;;;18.09;100.00;99859.22;5110992;28;19924;-66
2021/07/31 05:30:22;;;;;;;;;;;;;;;18.18;100.00;99858.88;5110983;28;19924;-66
2021/07/31 05:32:49;;;;;;;;;;;;;;;18.37;100.00;99854.66;5115138;28;20416;-70
2021/07/31 05:35:15;;;;;;;;;;;;;;;18.53;100.00;99858.16;5115004;28;19928;-67
2021/07/31 05:37:41;;;;;;;;;;;;;;;18.64;100.00;99851.28;5114662;28;20451;-65
2021/07/31 05:40:08;;;;;;;;;;;;;;;18.60;100.00;99844.47;5115083;28;19924;-66
2021/07/31 05:42:35;;;;;;;;;;;;;;;18.68;100.00;99855.31;5099969;28;19977;-65
2021/07/31 05:45:02;;;;;;;;;;;;;;;18.79;100.00;99856.72;5099226;28;19931;-69
2021/07/31 05:47:30;;;;;;;;;;;;;;;18.90;100.00;99856.16;5110289;28;19924;-69
2021/07/31 05:49:57;;;;;;;;;;;;;;;18.97;100.00;99845.22;5106553;28;19963;-69
2021/07/31 05:52:25;;;;;;;;;;;;;;;19.17;100.00;99848.94;5098734;28;19969;-70
2021/07/31 05:54:52;;;;;;;;;;;;;;;19.46;100.00;99855.25;5094715;28;19977;-69
2021/07/31 05:57:18;;;;;;;;;;;;;;;19.76;100.00;99860.44;5098698;28;19927;-65
2021/07/31 05:59:45;;;;;;;;;;;;;;;19.88;100.00;99860.72;5114822;28;19927;-65
2021/07/31 06:02:11;;;;;;;;;;;;;;;20.02;100.00;99845.94;5110351;28;19985;-65
2021/07/31 06:04:39;;;;;;;;;;;;;;;20.10;100.00;99861.44;5093907;28;19928;-70
2021/07/31 06:07:06;;;;;;;;;;;;;;;20.44;100.00;99861.50;5093953;28;19981;-70
2021/07/31 06:09:33;;;;;;;;;;;;;;;20.65;100.00;99868.72;5113898;28;19977;-70
2021/07/31 06:11:59;;;;;;;;;;;;;;;20.70;100.00;99863.44;5108160;28;19977;-66
2021/07/31 06:14:25;;;;;;;;;;;;;;;20.90;100.00;99858.75;5113750;28;19924;-66
2021/07/31 06:16:51;;;;;;;;;;;;;;;21.38;100.00;99856.78;5114088;28;19967;-65
2021/07/31 06:19:18;;;;;;;;;;;;;;;21.53;100.00;99851.00;5105716;28;19924;-65
2021/07/31 06:21:45;;;;;;;;;;;;;;;21.57;100.00;99858.63;5093757;28;19951;-66
2021/07/31 06:24:12;;;;;;;;;;;;;;;21.66;100.00;99861.16;5104191;28;19976;-65
2021/07/31 06:26:38;;;;;;;;;;;;;;;22.12;100.00;99860.06;5113734;28;19930;-65
2021/07/31 06:29:04;;;;;;;;;;;;;;;21.98;100.00;99863.97;5100781;28;19924;-65
2021/07/31 06:31:31;;;;;;;;;;;;;;;21.95;100.00;99856.13;5093229;28;20278;-66
2021/07/31 06:33:57;;;;;;;;;;;;;;;22.11;100.00;99855.59;5098649;28;20337;-65
2021/07/31 06:36:23;;;;;;;;;;;;;;;22.50;100.00;99863.88;5109699;28;19928;-69
2021/07/31 06:38:51;;;;;;;;;;;;;;;22.56;100.00;99858.31;5113702;28;19955;-66
2021/07/31 06:41:17;;;;;;;;;;;;;;;22.82;100.00;99852.78;5112053;28;19985;-69
2021/07/31 06:43:44;;;;;;;;;;;;;;;22.18;100.00;99845.38;5104140;28;20043;-69
2021/07/31 06:46:10;;;;;;;;;;;;;;;22.41;100.00;99857.81;5110259;28;20426;-71
2021/07/31 06:48:37;;;;;;;;;;;;;;;22.76;100.00;99862.84;5096984;28;20299;-69
2021/07/31 06:51:03;;;;;;;;;;;;;;;23.05;100.00;99853.00;5112437;28;19924;-70
2021/07/31 06:53:29;;;;;;;;;;;;;;;23.63;99.06;99861.13;5113765;28;20012;-70
2021/07/31 06:55:59;;;;;;;;;;;;;;;23.42;93.03;99854.97;5100040;28;20200;-69
2021/07/31 06:58:25;;;;;;;;;;;;;;;23.88;92.71;99848.00;5094463;28;19924;-69
2021/07/31 07:00:52;;;;;;;;;;;;;;;24.20;92.72;99850.56;5111818;28;20349;-71
2021/07/31 07:03:18;;;;;;;;;;;;;;;24.11;88.93;99849.22;5113171;28;19970;-71
2021/07/31 07:05:44;;;;;;;;;;;;;;;24.12;85.03;99842.59;5092894;28;20345;-70
2021/07/31 07:08:11;;;;;;;;;;;;;;;24.45;81.73;99846.75;5092643;28;19981;-70
2021/07/31 07:10:37;;;;;;;;;;;;;;;24.29;80.44;99850.22;5099181;28;20011;-66
2021/07/31 07:13:05;;;;;;;;;;;;;;;24.24;77.88;99842.63;5097217;28;19985;-65
2021/07/31 07:15:31;;;;;;;;;;;;;;;24.10;80.38;99850.28;5095781;28;19932;-67
2021/07/31 07:17:58;;;;;;;;;;;;;;;23.99;83.43;99838.06;5092471;28;19928;-67
2021/07/31 07:20:25;;;;;;;;;;;;;;;24.12;82.91;99842.59;5094580;28;20018;-66
2021/07/31 07:22:52;;;;;;;;;;;;;;;24.12;79.56;99842.59;5091454;28;20232;-66
2021/07/31 07:25:18;;;;;;;;;;;;;;;23.82;78.60;99837.84;5110353;28;19956;-66
2021/07/31 07:27:45;;;;;;;;;;;;;;;23.83;77.44;99838.69;5112761;28;19932;-65
2021/07/31 07:30:13;;;;;;;;;;;;;;;24.19;77.05;99840.56;5096496;28;19973;-66
2021/07/31 07:32:39;;;;;;;;;;;;;;;23.71;77.28;99833.09;5092475;28;19931;-67
2021/07/31 07:35:06;;;;;;;;;;;;;;;23.98;77.33;99824.47;5108738;28;19953;-67
2021/07/31 07:37:33;;;;;;;;;;;;;;;23.80;77.51;99828.06;5100301;28;19969;-66
2021/07/31 07:39:59;;;;;;;;;;;;;;;24.64;76.06;99827.28;5091629;28;19969;-69
2021/07/31 07:42:26;;;;;;;;;;;;;;;24.61;70.15;99838.84;5091678;28;20039;-70
2021/07/31 07:44:53;;;;;;;;;;;;;;;24.38;70.94;99829.41;5093527;28;19967;-70
2021/07/31 07:47:20;;;;;;;;;;;;;;;24.34;74.54;99825.41;5091812;28;19969;-70
2021/07/31 07:49:46;;;;;;;;;;;;;;;24.33;76.59;99821.81;5092136;28;19955;-70
2021/07/31 07:52:13;;;;;;;;;;;;;;;24.96;73.85;99835.28;5111498;28;20399;-70
2021/07/31 07:54:40;;;;;;;;;;;;;;;24.92;69.09;99821.06;5112152;28;19928;-70
2021/07/31 07:57:07;;;;;;;;;;;;;;;25.26;64.71;99825.97;5112390;28;20356;-70
2021/07/31 07:59:35;;;;;;;;;;;;;;;25.55;68.84;99816.63;5110970;28;20302;-70
2021/07/31 08:02:02;;;;;;;;;;;;;;;25.21;65.28;99815.59;5112469;28;19934;-66
2021/07/31 08:04:32;;;;;;;;;;;;;;;25.93;63.61;99805.16;5112021;28;19928;-66
2021/07/31 08:06:58;;;;;;;;;;;;;;;25.78;61.14;99814.03;5112086;28;19928;-66
2021/07/31 08:09:24;;;;;;;;;;;;;;;25.44;62.48;99822.22;5112301;28;19977;-70
2021/07/31 08:11:51;;;;;;;;;;;;;;;25.95;61.37;99817.72;5112154;28;19963;-70
2021/07/31 08:14:17;;;;;;;;;;;;;;;26.40;56.59;99827.16;5110839;28;20439;-71
2021/07/31 08:16:43;;;;;;;;;;;;;;;26.43;53.44;99821.13;5112112;28;19923;-71
2021/07/31 08:19:10;;;;;;;;;;;;;;;26.15;53.72;99817.28;5112224;28;19946;-70
2021/07/31 08:21:38;;;;;;;;;;;;;;;25.54;55.52;99825.22;5112295;28;19927;-71
2021/07/31 08:24:05;;;;;;;;;;;;;;;24.56;62.43;99826.53;5112094;28;19996;-71
2021/07/31 08:26:31;;;;;;;;;;;;;;;23.86;71.04;99827.97;5111863;28;20421;-71
2021/07/31 08:28:57;;;;;;;;;;;;;;;23.47;71.23;99821.88;5111946;28;19968;-70
2021/07/31 08:31:24;;;;;;;;;;;;;;;23.35;76.84;99832.88;5114179;28;19924;-69
2021/07/31 08:33:50;;;;;;;;;;;;;;;22.73;77.96;99822.66;5116412;28;19927;-70
2021/07/31 08:36:16;;;;;;;;;;;;;;;23.01;80.81;99825.97;5116076;27;19973;-70
2021/07/31 08:38:45;;;;;;;;;;;;;;;23.22;80.52;99827.50;5114487;28;20382;-71
2021/07/31 08:41:14;;;;;;;;;;;;;;;23.38;77.08;99837.13;5115994;28;19928;-71
2021/07/31 08:43:40;;;;;;;;;;;;;;;23.26;80.33;99838.97;5116280;28;19970;-71
2021/07/31 08:46:07;;;;;;;;;;;;;;;23.17;81.52;99833.75;5116033;28;20349;-67
2021/07/31 08:48:34;;;;;;;;;;;;;;;22.80;82.54;99833.66;5115793;28;20420;-67
2021/07/31 08:51:01;;;;;;;;;;;;;;;22.42;85.26;99842.03;5115998;28;20019;-67
2021/07/31 08:53:29;;;;;;;;;;;;;;;22.12;87.78;99846.25;5115631;28;20360;-67
2021/07/31 08:55:56;;;;;;;;;;;;;;;21.85;88.25;99848.34;5115681;28;19970;-67
2021/07/31 08:58:24;;;;;;;;;;;;;;;21.66;87.66;99839.91;5115318;28;19977;-66
2021/07/31 09:00:50;;;;;;;;;;;;;;;22.03;81.65;99831.88;5115773;28;20368;-67
2021/07/31 09:03:17;;;;;;;;;;;;;;;22.99;72.32;99828.16;5115973;28;20350;-67
2021/07/31 09:05:44;;;;;;;;;;;;;;;24.12;65.76;99836.19;5115745;28;19927;-67
2021/07/31 09:08:10;;;;;;;;;;;;;;;24.67;60.17;99826.84;5114221;28;20306;-67
2021/07/31 09:10:38;;;;;;;;;;;;;;;24.36;61.79;99837.97;5115377;28;20288;-67
2021/07/31 09:13:06;;;;;;;;;;;;;;;23.72;65.34;99829.25;5115440;28;19927;-67
2021/07/31 09:15:34;;;;;;;;;;;;;;;24.21;62.19;99827.31;5115246;28;19971;-67
2021/07/31 09:18:19;;;;;;;;;;;;;;;24.60;60.09;99835.25;5115260;28;19928;-66
2021/07/31 09:20:45;;;;;;;;;;;;;;;25.69;54.07;99822.75;5113999;28;19923;-67
2021/07/31 09:23:12;;;;;;;;;;;;;;;26.44;51.61;99821.94;5115337;28;19927;-67
2021/07/31 09:25:38;;;;;;;;;;;;;;;26.05;51.13;99815.13;5109151;28;19963;-67
2021/07/31 09:28:18;;;;;;;;;;;;;;;25.60;53.17;99820.63;5108696;28;19924;-66
2021/07/31 09:30:49;;;;;;;;;;;;;;;25.12;53.29;99822.59;5115012;28;20018;-67
2021/07/31 09:33:17;;;;;;;;;;;;;;;25.80;56.08;99823.81;5113699;28;19923;-67
2021/07/31 09:35:45;;;;;;;;;;;;;;;25.38;55.57;99821.28;5115096;28;20143;-71
2021/07/31 09:38:12;;;;;;;;;;;;;;;24.71;56.28;99822.50;5115174;28;19927;-70
2021/07/31 09:40:39;;;;;;;;;;;;;;;24.90;57.59;99832.38;5114150;28;19923;-71
2021/07/31 09:43:12;;;;;;;;;;;;;;;25.01;56.60;99822.38;5115047;28;20452;-67
2021/07/31 09:45:40;;;;;;;;;;;;;;;24.88;56.19;99834.56;5115009;28;19924;-71
2021/07/31 09:48:08;;;;;;;;;;;;;;;24.84;56.70;99836.13;5114533;28;19951;-67
2021/07/31 09:50:38;;;;;;;;;;;;;;;24.44;56.56;99822.03;5114273;28;19930;-67
2021/07/31 09:53:09;;;;;;;;;;;;;;;24.33;59.05;99832.91;5114630;28;19959;-67
2021/07/31 09:55:37;;;;;;;;;;;;;;;25.77;57.72;99817.91;5114133;28;20359;-67
2021/07/31 09:58:05;;;;;;;;;;;;;;;25.82;55.09;99818.00;5114074;28;19992;-67
2021/07/31 10:00:31;;;;;;;;;;;;;;;25.13;56.31;99821.53;5113929;28;19931;-67
2021/07/31 10:02:59;;;;;;;;;;;;;;;25.73;53.39;99806.44;5114778;28;19963;-71
2021/07/31 10:05:25;;;;;;;;;;;;;;;25.63;54.92;99812.63;5114363;28;19928;-71
2021/07/31 10:07:52;;;;;;;;;;;;;;;25.94;55.16;99824.34;5112707;28;20299;-70
2021/07/31 10:10:19;;;;;;;;;;;;;;;25.14;58.06;99824.03;5114411;28;20548;-70
2021/07/31 10:12:45;;;;;;;;;;;;;;;24.58;60.82;99827.13;5112869;28;19980;-70
2021/07/31 10:15:12;;;;;;;;;;;;;;;23.85;65.27;99818.00;5110857;28;19927;-71
2021/07/31 10:17:39;;;;;;;;;;;;;;;24.42;66.31;99832.56;5106400;28;19963;-70
2021/07/31 10:20:08;;;;;;;;;;;;;;;24.84;65.78;99818.63;5108569;28;20452;-70
2021/07/31 10:22:41;;;;;;;;;;;;;;;24.89;62.01;99822.38;5093592;28;19974;-71
2021/07/31 10:25:08;;;;;;;;;;;;;;;25.15;59.79;99817.41;5097897;28;19927;-67
2021/07/31 10:27:34;;;;;;;;;;;;;;;25.56;58.70;99817.47;5113557;28;20397;-66
2021/07/31 10:30:01;;;;;;;;;;;;;;;25.64;62.96;99817.09;5110266;28;20027;-67
2021/07/31 10:32:46;;;;;;;;;;;;;;;24.82;60.56;99823.59;5093498;28;19924;-67
2021/07/31 10:35:34;;;;;;;;;;;;;;;24.49;65.39;99825.81;5096382;28;19928;-66
2021/07/31 10:38:01;;;;;;;;;;;;;;;24.27;64.18;99819.97;5112672;28;19959;-67
2021/07/31 10:40:52;;;;;;;;;;;;;;;23.41;68.40;99825.59;5112022;28;19924;-67
2021/07/31 10:43:18;;;;;;;;;;;;;;;22.77;72.09;99831.34;5113324;28;19924;-67
2021/07/31 10:45:45;;;;;;;;;;;;;;;22.44;72.86;99829.69;5105939;28;20372;-70
2021/07/31 10:48:25;;;;;;;;;;;;;;;22.70;77.84;99831.41;5093205;28;19928;-70
2021/07/31 10:50:52;;;;;;;;;;;;;;;23.05;78.57;99830.84;5093428;28;19954;-66
2021/07/31 10:53:21;;;;;;;;;;;;;;;23.16;78.76;99840.34;5098737;28;20512;-67
2021/07/31 10:56:00;;;;;;;;;;;;;;;23.71;78.09;99838.66;5111782;28;20436;-66
2021/07/31 10:58:27;;;;;;;;;;;;;;;24.13;73.32;99844.28;5105898;28;19978;-66
2021/07/31 11:01:13;;;;;;;;;;;;;;;24.55;68.25;99841.50;5092545;28;19924;-70
2021/07/31 11:03:41;;;;;;;;;;;;;;;25.14;61.38;99840.69;5094034;28;19938;-65
2021/07/31 11:06:09;;;;;;;;;;;;;;;24.93;56.57;99846.88;5092858;28;19924;-65
2021/07/31 11:08:55;;;;;;;;;;;;;;;24.33;61.06;99840.34;5099365;28;19927;-65
2021/07/31 11:11:24;;;;;;;;;;;;;;;24.06;63.31;99840.75;5112766;28;19924;-67
2021/07/31 11:13:52;;;;;;;;;;;;;;;23.78;63.45;99842.16;5104310;28;19962;-71
2021/07/31 11:16:19;;;;;;;;;;;;;;;23.97;63.07;99828.31;5092469;28;19924;-71
2021/07/31 11:18:47;;;;;;;;;;;;;;;25.00;59.28;99845.66;5097900;28;19923;-72
2021/07/31 11:21:16;;;;;;;;;;;;;;;25.31;54.67;99837.16;5092614;28;19935;-72
2021/07/31 11:23:43;;;;;;;;;;;;;;;25.55;53.79;99840.81;5098363;28;19923;-72
2021/07/31 11:26:10;;;;;;;;;;;;;;;26.14;50.42;99829.50;5113014;28;19977;-72
2021/07/31 11:28:37;;;;;;;;;;;;;;;26.67;51.15;99854.31;5105886;28;20339;-72
2021/07/31 11:31:15;;;;;;;;;;;;;;;26.55;51.68;99854.41;5092563;28;19924;-72
2021/07/31 11:33:41;;;;;;;;;;;;;;;26.42;48.73;99850.03;5098403;28;19924;-71
2021/07/31 11:36:12;;;;;;;;;;;;;;;26.53;49.63;99846.31;5112610;28;20343;-71
2021/07/31 11:38:40;;;;;;;;;;;;;;;26.78;47.89;99833.09;5106871;28;19943;-71
2021/07/31 11:41:08;;;;;;;;;;;;;;;26.64;48.79;99844.53;5091004;28;20344;-71
2021/07/31 11:43:44;;;;;;;;;;;;;;;25.80;47.98;99832.16;5096429;28;19977;-71
2021/07/31 11:46:11;;;;;;;;;;;;;;;25.53;51.08;99871.59;5112475;28;20397;-66
2021/07/31 11:48:37;;;;;;;;;;;;;;;25.83;50.20;99856.66;5107712;28;19966;-67
2021/07/31 11:51:04;;;;;;;;;;;;;;;26.89;48.85;99852.50;5094082;28;19932;-66
2021/07/31 11:53:30;;;;;;;;;;;;;;;26.34;49.19;99850.44;5104442;27;19966;-67
2021/07/31 11:56:15;;;;;;;;;;;;;;;26.43;49.40;99850.84;5103239;28;19994;-72
2021/07/31 11:58:42;;;;;;;;;;;;;;;25.83;51.50;99848.31;5091675;28;19924;-72
2021/07/31 12:01:08;;;;;;;;;;;;;;;25.32;52.84;99867.50;5093520;28;19923;-71
2021/07/31 12:03:42;;;;;;;;;;;;;;;24.63;55.28;99864.47;5103101;28;19924;-72
2021/07/31 12:06:23;;;;;;;;;;;;;;;24.39;58.25;99865.19;5091068;28;19924;-70
2021/07/31 12:08:49;;;;;;;;;;;;;;;24.50;59.01;99854.38;5097763;28;19951;-71
2021/07/31 12:11:17;;;;;;;;;;;;;;;24.63;57.52;99853.38;5096050;28;20443;-67
2021/07/31 12:13:43;;;;;;;;;;;;;;;25.24;56.26;99854.81;5110469;28;19927;-66
2021/07/31 12:16:09;;;;;;;;;;;;;;;24.76;55.35;99846.72;5111784;28;19955;-66
2021/07/31 12:18:49;;;;;;;;;;;;;;;24.58;54.38;99856.81;5112131;28;19962;-66
2021/07/31 12:21:28;;;;;;;;;;;;;;;24.68;56.50;99857.09;5092252;28;20407;-66
2021/07/31 12:23:55;;;;;;;;;;;;;;;25.22;53.22;99843.09;5091706;28;19928;-67
2021/07/31 12:26:29;;;;;;;;;;;;;;;26.42;50.59;99847.25;5091541;28;19930;-67
2021/07/31 12:28:57;;;;;;;;;;;;;;;26.09;49.76;99837.72;5105539;28;19969;-68
2021/07/31 12:31:23;;;;;;;;;;;;;;;25.76;49.51;99850.38;5111661;28;19924;-67
2021/07/31 12:33:49;;;;;;;;;;;;;;;25.55;49.16;99827.75;5111219;28;19924;-66
2021/07/31 12:36:16;;;;;;;;;;;;;;;24.96;51.57;99838.91;5111812;28;19985;-66
2021/07/31 12:38:42;;;;;;;;;;;;;;;24.89;52.57;99839.03;5109480;28;19955;-71
2021/07/31 12:41:08;;;;;;;;;;;;;;;25.13;50.96;99846.50;5107684;28;19924;-73
2021/07/31 12:43:36;;;;;;;;;;;;;;;25.70;51.87;99840.28;5099714;28;19963;-71
2021/07/31 12:46:03;;;;;;;;;;;;;;;25.29;48.50;99856.84;5091205;28;19928;-72
2021/07/31 12:48:30;;;;;;;;;;;;;;;26.05;47.10;99848.50;5091102;28;19924;-65